createdAt,value
2014-08-02T00:00:13.071Z,99056
2014-08-02T00:00:31.290Z,99062
2014-08-02T00:01:21.886Z,99067
2014-08-02T00:01:40.105Z,99067
2014-08-02T00:01:58.341Z,99056
2014-08-02T00:02:16.544Z,99073
2014-08-02T00:02:34.779Z,99065
2014-08-02T00:02:53.013Z,99059
2014-08-02T00:03:26.155Z,99067
2014-08-02T00:03:44.373Z,99056
2014-08-02T00:04:02.626Z,99067
2014-08-02T00:04:20.845Z,99067
2014-08-02T00:04:39.079Z,99062
2014-08-02T00:04:57.298Z,99062
2014-08-02T00:05:15.534Z,99050
2014-08-02T00:05:33.737Z,99062
2014-08-02T00:05:51.971Z,99053
2014-08-02T00:06:10.176Z,99056
2014-08-02T00:06:28.395Z,99053
2014-08-02T00:06:46.629Z,99056
2014-08-02T00:07:04.835Z,99068
2014-08-02T00:07:23.085Z,99059
2014-08-02T00:07:41.273Z,99056
2014-08-02T00:07:59.492Z,99056
2014-08-02T00:08:17.744Z,99056
2014-08-02T00:08:35.962Z,99062
2014-08-02T00:08:54.181Z,99056
2014-08-02T00:09:12.385Z,99053
2014-08-02T00:09:30.620Z,99056
2014-08-02T00:09:48.838Z,99059
2014-08-02T00:10:07.075Z,99059
2014-08-02T00:10:25.262Z,99056
2014-08-02T00:10:43.497Z,99050
2014-08-02T00:11:01.731Z,99053
2014-08-02T00:11:19.936Z,99056
2014-08-02T00:11:38.155Z,99050
2014-08-02T00:11:56.405Z,99059
2014-08-02T00:12:14.626Z,99056
2014-08-02T00:12:32.923Z,99056
2014-08-02T00:12:51.141Z,99053
2014-08-02T00:13:09.393Z,99050
2014-08-02T00:13:27.596Z,99059
2014-08-02T00:13:45.831Z,99062
2014-08-02T00:14:04.034Z,99062
2014-08-02T00:14:22.286Z,99053
2014-08-02T00:14:40.505Z,99053
2014-08-02T00:14:58.692Z,99047
2014-08-02T00:15:16.944Z,99047
2014-08-02T00:15:35.163Z,99056
2014-08-02T00:15:53.382Z,99050
2014-08-02T00:16:11.570Z,99050
2014-08-02T00:16:29.789Z,99050
2014-08-02T00:16:48.039Z,99059
2014-08-02T00:17:06.242Z,99042
2014-08-02T00:17:24.464Z,99050
2014-08-02T00:17:42.667Z,99053
2014-08-02T00:18:00.886Z,99050
2014-08-02T00:18:19.138Z,99047
2014-08-02T00:18:37.356Z,99050
2014-08-02T00:18:55.575Z,99053
2014-08-02T00:19:13.812Z,99056
2014-08-02T00:19:32.030Z,99047
2014-08-02T00:19:50.233Z,99053
2014-08-02T00:20:08.483Z,99039
2014-08-02T00:20:26.703Z,99050
2014-08-02T00:20:44.922Z,99042
2014-08-02T00:21:03.125Z,99053
2014-08-02T00:21:21.346Z,99062
2014-08-02T00:21:39.596Z,99050
2014-08-02T00:21:57.799Z,99050
2014-08-02T00:22:30.177Z,99053
2014-08-02T00:22:48.396Z,99047
2014-08-02T00:23:06.646Z,99053
2014-08-02T00:23:24.866Z,99042
2014-08-02T00:23:43.116Z,99053
2014-08-02T00:24:01.335Z,99053
2014-08-02T00:24:19.540Z,99050
2014-08-02T00:24:37.790Z,99042
2014-08-02T00:24:55.993Z,99050
2014-08-02T00:25:14.212Z,99047
2014-08-02T00:25:32.448Z,99040
2014-08-02T00:26:04.823Z,99042
2014-08-02T00:26:37.200Z,99042
2014-08-02T00:26:55.403Z,99040
2014-08-02T00:27:13.653Z,99037
2014-08-02T00:28:04.234Z,99047
2014-08-02T00:28:22.453Z,99043
2014-08-02T00:28:40.704Z,99037
2014-08-02T00:28:58.922Z,99040
2014-08-02T00:29:17.141Z,99047
2014-08-02T00:29:35.347Z,99043
2014-08-02T00:29:53.566Z,99040
2014-08-02T00:30:11.800Z,99043
2014-08-02T00:30:30.035Z,99047
2014-08-02T00:30:48.255Z,99040
2014-08-02T00:31:06.459Z,99040
2014-08-02T00:31:24.677Z,99040
2014-08-02T00:31:42.960Z,99043
2014-08-02T00:32:01.194Z,99031
2014-08-02T00:32:19.397Z,99040
2014-08-02T00:32:37.631Z,99043
2014-08-02T00:32:55.869Z,99040
2014-08-02T00:33:14.088Z,99034
2014-08-02T00:33:32.338Z,99040
2014-08-02T00:33:50.558Z,99040
2014-08-02T00:34:08.793Z,99043
2014-08-02T00:34:27.027Z,99047
2014-08-02T00:34:45.230Z,99034
2014-08-02T00:35:03.466Z,99037
2014-08-02T00:35:21.684Z,99037
2014-08-02T00:35:39.919Z,99037
2014-08-02T00:36:13.061Z,99031
2014-08-02T00:36:31.264Z,99037
2014-08-02T00:36:49.468Z,99043
2014-08-02T00:37:07.704Z,99031
2014-08-02T00:37:40.079Z,99040
2014-08-02T00:37:58.315Z,99028
2014-08-02T00:38:16.518Z,99037
2014-08-02T00:38:34.737Z,99037
2014-08-02T00:38:52.956Z,99031
2014-08-02T00:39:11.209Z,99031
2014-08-02T00:39:29.396Z,99025
2014-08-02T00:39:47.615Z,99037
2014-08-02T00:40:05.866Z,99037
2014-08-02T00:40:24.054Z,99040
2014-08-02T00:40:42.272Z,99034
2014-08-02T00:41:00.509Z,99043
2014-08-02T00:41:18.743Z,99040
2014-08-02T00:41:36.978Z,99031
2014-08-02T00:41:55.165Z,99034
2014-08-02T00:42:13.387Z,99025
2014-08-02T00:42:31.621Z,99034
2014-08-02T00:42:49.856Z,99025
2014-08-02T00:43:08.075Z,99031
2014-08-02T00:43:26.294Z,99037
2014-08-02T00:43:44.528Z,99025
2014-08-02T00:44:02.765Z,99034
2014-08-02T00:44:20.984Z,99037
2014-08-02T00:44:39.187Z,99037
2014-08-02T00:44:57.437Z,99031
2014-08-02T00:45:15.642Z,99019
2014-08-02T00:45:33.861Z,99037
2014-08-02T00:45:52.079Z,99028
2014-08-02T00:46:10.332Z,99031
2014-08-02T00:46:28.551Z,99028
2014-08-02T00:46:46.754Z,99034
2014-08-02T00:47:04.990Z,99031
2014-08-02T00:47:23.208Z,99043
2014-08-02T00:47:41.458Z,99031
2014-08-02T00:47:59.661Z,99031
2014-08-02T00:48:17.882Z,99040
2014-08-02T00:48:36.117Z,99037
2014-08-02T00:48:54.335Z,99031
2014-08-02T00:49:12.540Z,99028
2014-08-02T00:49:30.759Z,99025
2014-08-02T00:49:48.994Z,99031
2014-08-02T00:50:07.214Z,99014
2014-08-02T00:50:25.417Z,99028
2014-08-02T00:50:43.667Z,99025
2014-08-02T00:51:16.029Z,99025
2014-08-02T00:51:34.279Z,99034
2014-08-02T00:51:52.498Z,99037
2014-08-02T00:52:10.703Z,99028
2014-08-02T00:52:28.937Z,99031
2014-08-02T00:52:47.156Z,99031
2014-08-02T00:53:05.359Z,99025
2014-08-02T00:53:23.595Z,99037
2014-08-02T00:53:41.798Z,99031
2014-08-02T00:54:00.033Z,99025
2014-08-02T00:54:18.253Z,99031
2014-08-02T00:54:36.471Z,99025
2014-08-02T00:54:54.690Z,99031
2014-08-02T00:55:12.912Z,99025
2014-08-02T00:55:31.146Z,99022
2014-08-02T00:55:49.334Z,99028
2014-08-02T00:56:07.568Z,99014
2014-08-02T00:56:25.789Z,99022
2014-08-02T00:56:44.008Z,99031
2014-08-02T00:57:02.258Z,99025
2014-08-02T00:57:34.618Z,99022
2014-08-02T00:57:52.837Z,99011
2014-08-02T00:58:11.055Z,99019
2014-08-02T00:58:29.293Z,99022
2014-08-02T00:58:47.543Z,99019
2014-08-02T00:59:05.777Z,99011
2014-08-02T00:59:23.997Z,99019
2014-08-02T00:59:42.216Z,99019
2014-08-02T01:00:00.450Z,99017
2014-08-02T01:00:18.655Z,99019
2014-08-02T01:00:51.061Z,99022
2014-08-02T01:01:09.265Z,99017
2014-08-02T01:01:27.485Z,99019
2014-08-02T01:01:45.720Z,99011
2014-08-02T01:02:03.923Z,99022
2014-08-02T01:02:22.173Z,99019
2014-08-02T01:02:40.379Z,99019
2014-08-02T01:02:58.598Z,99017
2014-08-02T01:03:16.816Z,99017
2014-08-02T01:03:35.036Z,99017
2014-08-02T01:03:53.255Z,99022
2014-08-02T01:04:11.521Z,99014
2014-08-02T01:04:29.708Z,99019
2014-08-02T01:04:47.944Z,99022
2014-08-02T01:05:06.210Z,99017
2014-08-02T01:05:24.398Z,99019
2014-08-02T01:05:42.635Z,99008
2014-08-02T01:06:00.838Z,99019
2014-08-02T01:06:19.072Z,99019
2014-08-02T01:06:37.276Z,99022
2014-08-02T01:07:09.684Z,99022
2014-08-02T01:07:27.903Z,99022
2014-08-02T01:07:46.139Z,99022
2014-08-02T01:08:04.342Z,99020
2014-08-02T01:08:22.561Z,99008
2014-08-02T01:08:54.952Z,99022
2014-08-02T01:09:13.171Z,99022
2014-08-02T01:09:31.421Z,99025
2014-08-02T01:09:49.643Z,99017
2014-08-02T01:10:07.862Z,99020
2014-08-02T01:10:26.096Z,99020
2014-08-02T01:10:44.299Z,99014
2014-08-02T01:11:02.535Z,99014
2014-08-02T01:11:20.753Z,99028
2014-08-02T01:11:38.972Z,99017
2014-08-02T01:11:57.178Z,99011
2014-08-02T01:12:15.413Z,99011
2014-08-02T01:12:33.647Z,99014
2014-08-02T01:12:51.868Z,99017
2014-08-02T01:13:10.086Z,99017
2014-08-02T01:13:28.305Z,99014
2014-08-02T01:13:46.540Z,99008
2014-08-02T01:14:04.759Z,99022
2014-08-02T01:14:22.962Z,99017
2014-08-02T01:14:41.212Z,99008
2014-08-02T01:14:59.418Z,99002
2014-08-02T01:15:17.652Z,99005
2014-08-02T01:15:35.855Z,99017
2014-08-02T01:15:54.076Z,99017
2014-08-02T01:16:12.310Z,99014
2014-08-02T01:16:30.529Z,99020
2014-08-02T01:16:48.732Z,99008
2014-08-02T01:17:06.969Z,99008
2014-08-02T01:17:25.173Z,99005
2014-08-02T01:17:43.423Z,99011
2014-08-02T01:18:01.642Z,99014
2014-08-02T01:18:19.845Z,99014
2014-08-02T01:18:38.049Z,99014
2014-08-02T01:18:56.316Z,99008
2014-08-02T01:19:14.504Z,99011
2014-08-02T01:19:32.722Z,99020
2014-08-02T01:19:50.957Z,99014
2014-08-02T01:20:09.178Z,99014
2014-08-02T01:20:27.396Z,99014
2014-08-02T01:20:59.773Z,99014
2014-08-02T01:21:18.008Z,99005
2014-08-02T01:21:36.242Z,99017
2014-08-02T01:21:54.461Z,99008
2014-08-02T01:22:12.666Z,99017
2014-08-02T01:22:30.885Z,99011
2014-08-02T01:22:49.135Z,99020
2014-08-02T01:23:07.354Z,99008
2014-08-02T01:23:25.573Z,99008
2014-08-02T01:23:43.776Z,99008
2014-08-02T01:24:02.029Z,99014
2014-08-02T01:24:20.248Z,99008
2014-08-02T01:24:38.451Z,99011
2014-08-02T01:24:56.686Z,99008
2014-08-02T01:25:14.906Z,99005
2014-08-02T01:25:33.125Z,99008
2014-08-02T01:25:51.328Z,99002
2014-08-02T01:26:41.955Z,99002
2014-08-02T01:27:00.160Z,99008
2014-08-02T01:27:18.395Z,99002
2014-08-02T01:27:36.598Z,99011
2014-08-02T01:27:54.817Z,98996
2014-08-02T01:28:13.021Z,99005
2014-08-02T01:28:31.255Z,99005
2014-08-02T01:28:49.474Z,99005
2014-08-02T01:29:07.696Z,99008
2014-08-02T01:29:25.914Z,98999
2014-08-02T01:29:44.149Z,99002
2014-08-02T01:30:02.400Z,99005
2014-08-02T01:30:20.618Z,99005
2014-08-02T01:30:38.837Z,98999
2014-08-02T01:30:57.087Z,98999
2014-08-02T01:31:15.308Z,99008
2014-08-02T01:31:33.527Z,99017
2014-08-02T01:31:51.839Z,99008
2014-08-02T01:32:10.044Z,99002
2014-08-02T01:32:28.263Z,99002
2014-08-02T01:32:46.513Z,99008
2014-08-02T01:33:04.735Z,99008
2014-08-02T01:33:22.969Z,99002
2014-08-02T01:33:41.204Z,99008
2014-08-02T01:33:59.454Z,98999
2014-08-02T01:34:17.689Z,98999
2014-08-02T01:34:50.064Z,99005
2014-08-02T01:35:08.286Z,98996
2014-08-02T01:35:26.614Z,99005
2014-08-02T01:36:17.224Z,99005
2014-08-02T01:36:35.459Z,99008
2014-08-02T01:36:53.646Z,99005
2014-08-02T01:37:11.882Z,99005
2014-08-02T01:37:30.117Z,99005
2014-08-02T01:37:48.320Z,98996
2014-08-02T01:38:06.539Z,99008
2014-08-02T01:38:24.822Z,99014
2014-08-02T01:38:43.041Z,99008
2014-08-02T01:39:01.291Z,98996
2014-08-02T01:39:19.480Z,98999
2014-08-02T01:39:37.699Z,99002
2014-08-02T01:39:55.949Z,99005
2014-08-02T01:40:14.152Z,98999
2014-08-02T01:40:32.388Z,99014
2014-08-02T01:40:50.607Z,98994
2014-08-02T01:41:08.826Z,99005
2014-08-02T01:41:27.031Z,98993
2014-08-02T01:41:45.234Z,98991
2014-08-02T01:42:03.484Z,98991
2014-08-02T01:42:21.703Z,98999
2014-08-02T01:42:39.909Z,98996
2014-08-02T01:42:58.143Z,99002
2014-08-02T01:43:16.378Z,98994
2014-08-02T01:43:34.613Z,98999
2014-08-02T01:43:52.879Z,98999
2014-08-02T01:44:11.269Z,98994
2014-08-02T01:44:29.473Z,98994
2014-08-02T01:44:47.694Z,99005
2014-08-02T01:45:05.929Z,98994
2014-08-02T01:45:24.147Z,98999
2014-08-02T01:45:42.383Z,99002
2014-08-02T01:46:00.602Z,98994
2014-08-02T01:46:18.805Z,98999
2014-08-02T01:46:37.023Z,98988
2014-08-02T01:46:55.244Z,98985
2014-08-02T01:47:13.494Z,98988
2014-08-02T01:47:31.697Z,98997
2014-08-02T01:47:49.918Z,98991
2014-08-02T01:48:08.121Z,98991
2014-08-02T01:48:26.356Z,98994
2014-08-02T01:48:59.498Z,98991
2014-08-02T01:49:17.701Z,98994
2014-08-02T01:49:35.936Z,98994
2014-08-02T01:49:54.156Z,98991
2014-08-02T01:50:12.391Z,98999
2014-08-02T01:50:30.610Z,98999
2014-08-02T01:50:48.813Z,98988
2014-08-02T01:51:07.066Z,98994
2014-08-02T01:51:25.269Z,98999
2014-08-02T01:51:43.488Z,98982
2014-08-02T01:52:01.724Z,98988
2014-08-02T01:52:19.927Z,98994
2014-08-02T01:52:38.161Z,98994
2014-08-02T01:52:56.380Z,98994
2014-08-02T01:53:14.601Z,98997
2014-08-02T01:53:32.820Z,98994
2014-08-02T01:53:51.023Z,98991
2014-08-02T01:54:09.290Z,98994
2014-08-02T01:54:27.509Z,98994
2014-08-02T01:54:59.884Z,98988
2014-08-02T01:55:32.261Z,98999
2014-08-02T01:56:05.402Z,98997
2014-08-02T01:56:23.607Z,98997
2014-08-02T01:56:41.826Z,98994
2014-08-02T01:57:00.076Z,98991
2014-08-02T01:57:18.295Z,98994
2014-08-02T01:57:36.514Z,98994
2014-08-02T01:57:54.733Z,98994
2014-08-02T01:58:12.938Z,98994
2014-08-02T01:58:31.157Z,98988
2014-08-02T01:58:49.376Z,98994
2014-08-02T01:59:07.641Z,98991
2014-08-02T01:59:25.894Z,98988
2014-08-02T01:59:44.113Z,98985
2014-08-02T02:00:02.316Z,98997
2014-08-02T02:00:20.521Z,99000
2014-08-02T02:00:38.771Z,98997
2014-08-02T02:00:56.990Z,98994
2014-08-02T02:01:15.193Z,98979
2014-08-02T02:01:33.413Z,99005
2014-08-02T02:01:51.632Z,98991
2014-08-02T02:02:09.882Z,98979
2014-08-02T02:02:28.072Z,99000
2014-08-02T02:02:46.306Z,99000
2014-08-02T02:03:04.556Z,98994
2014-08-02T02:03:22.793Z,98988
2014-08-02T02:03:40.996Z,98994
2014-08-02T02:04:45.764Z,98982
2014-08-02T02:05:03.982Z,98982
2014-08-02T02:05:22.232Z,98997
2014-08-02T02:05:40.453Z,98985
2014-08-02T02:05:58.766Z,98985
2014-08-02T02:06:16.984Z,98982
2014-08-02T02:06:49.361Z,98979
2014-08-02T02:07:07.580Z,98988
2014-08-02T02:07:25.799Z,98994
2014-08-02T02:07:44.035Z,98991
2014-08-02T02:08:02.254Z,98973
2014-08-02T02:08:20.473Z,98979
2014-08-02T02:08:38.692Z,98985
2014-08-02T02:08:56.927Z,98979
2014-08-02T02:09:29.286Z,98976
2014-08-02T02:10:01.679Z,98982
2014-08-02T02:10:19.898Z,98979
2014-08-02T02:10:38.103Z,98988
2014-08-02T02:10:56.321Z,98982
2014-08-02T02:11:14.571Z,98974
2014-08-02T02:11:32.790Z,98982
2014-08-02T02:11:50.995Z,98974
2014-08-02T02:12:23.370Z,98988
2014-08-02T02:12:41.592Z,98974
2014-08-02T02:12:59.842Z,98976
2014-08-02T02:13:18.061Z,98979
2014-08-02T02:13:36.264Z,98982
2014-08-02T02:13:54.484Z,98982
2014-08-02T02:14:12.734Z,98979
2014-08-02T02:14:30.937Z,98974
2014-08-02T02:14:49.159Z,98982
2014-08-02T02:15:07.377Z,98974
2014-08-02T02:15:25.643Z,98976
2014-08-02T02:15:43.877Z,98979
2014-08-02T02:16:02.082Z,98976
2014-08-02T02:16:20.301Z,98974
2014-08-02T02:16:38.551Z,98977
2014-08-02T02:16:56.755Z,98974
2014-08-02T02:17:14.958Z,98974
2014-08-02T02:17:33.177Z,98966
2014-08-02T02:17:51.427Z,98979
2014-08-02T02:18:09.649Z,98977
2014-08-02T02:18:27.852Z,98974
2014-08-02T02:18:46.086Z,98974
2014-08-02T02:19:04.291Z,98974
2014-08-02T02:19:22.541Z,98977
2014-08-02T02:19:40.728Z,98968
2014-08-02T02:19:58.947Z,98971
2014-08-02T02:20:17.183Z,98971
2014-08-02T02:20:35.402Z,98968
2014-08-02T02:20:53.605Z,98971
2014-08-02T02:21:11.826Z,98974
2014-08-02T02:21:30.076Z,98968
2014-08-02T02:21:48.310Z,98971
2014-08-02T02:22:06.513Z,98968
2014-08-02T02:22:24.735Z,98968
2014-08-02T02:22:42.969Z,98977
2014-08-02T02:23:01.188Z,98966
2014-08-02T02:23:33.580Z,98971
2014-08-02T02:23:51.814Z,98966
2014-08-02T02:24:10.002Z,98963
2014-08-02T02:24:28.238Z,98971
2014-08-02T02:24:46.457Z,98963
2014-08-02T02:25:04.691Z,98960
2014-08-02T02:25:22.913Z,98957
2014-08-02T02:25:41.147Z,98963
2014-08-02T02:26:31.743Z,98960
2014-08-02T02:26:49.931Z,98957
2014-08-02T02:27:08.181Z,98966
2014-08-02T02:27:26.400Z,98957
2014-08-02T02:27:44.603Z,98957
2014-08-02T02:28:02.822Z,98951
2014-08-02T02:28:35.200Z,98957
2014-08-02T02:28:53.450Z,98949
2014-08-02T02:29:11.669Z,98957
2014-08-02T02:29:29.874Z,98960
2014-08-02T02:29:48.093Z,98954
2014-08-02T02:30:06.327Z,98949
2014-08-02T02:30:24.546Z,98949
2014-08-02T02:30:42.782Z,98960
2014-08-02T02:31:01.048Z,98949
2014-08-02T02:31:19.282Z,98954
2014-08-02T02:31:37.518Z,98960
2014-08-02T02:31:55.736Z,98949
2014-08-02T02:32:14.002Z,98943
2014-08-02T02:32:32.223Z,98960
2014-08-02T02:32:50.442Z,98949
2014-08-02T02:33:08.660Z,98949
2014-08-02T02:33:26.879Z,98951
2014-08-02T02:33:45.115Z,98954
2014-08-02T02:34:03.428Z,98943
2014-08-02T02:34:21.647Z,98949
2014-08-02T02:34:39.883Z,98949
2014-08-02T02:34:58.086Z,98954
2014-08-02T02:35:16.321Z,98948
2014-08-02T02:35:34.541Z,98951
2014-08-02T02:35:52.807Z,98946
2014-08-02T02:36:11.026Z,98949
2014-08-02T02:36:29.244Z,98960
2014-08-02T02:36:47.496Z,98954
2014-08-02T02:37:05.700Z,98943
2014-08-02T02:37:23.903Z,98949
2014-08-02T02:37:42.123Z,98960
2014-08-02T02:38:00.342Z,98946
2014-08-02T02:38:18.639Z,98949
2014-08-02T02:38:36.844Z,98957
2014-08-02T02:38:55.079Z,98951
2014-08-02T02:39:27.438Z,98943
2014-08-02T02:39:45.659Z,98954
2014-08-02T02:40:03.909Z,98940
2014-08-02T02:40:22.112Z,98949
2014-08-02T02:40:40.348Z,98949
2014-08-02T02:40:58.551Z,98954
2014-08-02T02:41:16.754Z,98946
2014-08-02T02:41:34.991Z,98946
2014-08-02T02:41:53.210Z,98946
2014-08-02T02:42:11.428Z,98946
2014-08-02T02:42:29.663Z,98946
2014-08-02T02:42:47.882Z,98937
2014-08-02T02:43:06.101Z,98943
2014-08-02T02:43:38.479Z,98943
2014-08-02T02:43:56.698Z,98937
2014-08-02T02:44:14.948Z,98943
2014-08-02T02:44:33.167Z,98940
2014-08-02T02:44:51.403Z,98931
2014-08-02T02:45:09.606Z,98934
2014-08-02T02:45:27.825Z,98934
2014-08-02T02:45:46.077Z,98940
2014-08-02T02:46:04.296Z,98937
2014-08-02T02:46:22.514Z,98925
2014-08-02T02:46:40.718Z,98946
2014-08-02T02:46:58.938Z,98937
2014-08-02T02:47:17.141Z,98934
2014-08-02T02:47:35.376Z,98934
2014-08-02T02:47:53.627Z,98940
2014-08-02T02:48:11.830Z,98937
2014-08-02T02:48:30.064Z,98940
2014-08-02T02:48:48.252Z,98931
2014-08-02T02:49:06.505Z,98937
2014-08-02T02:49:24.708Z,98928
2014-08-02T02:49:42.927Z,98937
2014-08-02T02:50:01.132Z,98937
2014-08-02T02:50:19.351Z,98928
2014-08-02T02:50:37.601Z,98931
2014-08-02T02:50:55.819Z,98931
2014-08-02T02:51:14.023Z,98928
2014-08-02T02:51:32.258Z,98934
2014-08-02T02:51:50.477Z,98928
2014-08-02T02:52:08.698Z,98926
2014-08-02T02:52:26.901Z,98926
2014-08-02T02:52:45.151Z,98931
2014-08-02T02:53:03.355Z,98923
2014-08-02T02:53:21.622Z,98937
2014-08-02T02:53:39.841Z,98928
2014-08-02T02:53:58.091Z,98923
2014-08-02T02:54:16.312Z,98923
2014-08-02T02:54:34.515Z,98934
2014-08-02T02:54:52.734Z,98928
2014-08-02T02:55:11.015Z,98931
2014-08-02T02:55:29.236Z,98928
2014-08-02T02:55:47.454Z,98923
2014-08-02T02:56:05.673Z,98925
2014-08-02T02:56:23.925Z,98928
2014-08-02T02:56:42.128Z,98926
2014-08-02T02:57:00.347Z,98931
2014-08-02T02:57:18.566Z,98920
2014-08-02T02:57:36.802Z,98926
2014-08-02T02:57:55.005Z,98937
2014-08-02T02:58:13.255Z,98923
2014-08-02T02:58:31.493Z,98928
2014-08-02T02:58:49.696Z,98928
2014-08-02T02:59:07.930Z,98937
2014-08-02T02:59:26.150Z,98928
2014-08-02T02:59:44.369Z,98923
2014-08-02T03:00:02.587Z,98928
2014-08-02T03:00:20.806Z,98934
2014-08-02T03:00:39.042Z,98920
2014-08-02T03:00:57.386Z,98926
2014-08-02T03:01:15.589Z,98923
2014-08-02T03:01:33.826Z,98923
2014-08-02T03:01:52.044Z,98917
2014-08-02T03:02:10.326Z,98923
2014-08-02T03:02:28.531Z,98923
2014-08-02T03:02:46.765Z,98926
2014-08-02T03:03:04.984Z,98934
2014-08-02T03:03:23.218Z,98926
2014-08-02T03:03:55.595Z,98920
2014-08-02T03:04:13.814Z,98920
2014-08-02T03:04:32.035Z,98931
2014-08-02T03:04:50.238Z,98934
2014-08-02T03:05:08.472Z,98926
2014-08-02T03:05:26.707Z,98928
2014-08-02T03:05:44.926Z,98920
2014-08-02T03:06:03.130Z,98920
2014-08-02T03:06:21.348Z,98934
2014-08-02T03:06:39.570Z,98928
2014-08-02T03:06:57.789Z,98931
2014-08-02T03:07:16.023Z,98926
2014-08-02T03:07:34.258Z,98928
2014-08-02T03:07:52.447Z,98934
2014-08-02T03:08:10.681Z,98940
2014-08-02T03:08:28.900Z,98934
2014-08-02T03:08:47.137Z,98937
2014-08-02T03:09:05.340Z,98934
2014-08-02T03:09:23.558Z,98926
2014-08-02T03:09:41.793Z,98931
2014-08-02T03:10:00.029Z,98937
2014-08-02T03:10:18.264Z,98932
2014-08-02T03:10:36.451Z,98929
2014-08-02T03:10:54.687Z,98920
2014-08-02T03:11:12.891Z,98937
2014-08-02T03:11:31.109Z,98934
2014-08-02T03:11:49.344Z,98932
2014-08-02T03:12:07.564Z,98929
2014-08-02T03:12:25.783Z,98929
2014-08-02T03:12:44.002Z,98940
2014-08-02T03:13:02.238Z,98935
2014-08-02T03:13:20.473Z,98926
2014-08-02T03:13:38.660Z,98937
2014-08-02T03:13:56.895Z,98932
2014-08-02T03:14:15.131Z,98932
2014-08-02T03:14:33.334Z,98926
2014-08-02T03:14:51.553Z,98934
2014-08-02T03:15:09.774Z,98929
2014-08-02T03:15:28.008Z,98923
2014-08-02T03:16:01.164Z,98934
2014-08-02T03:16:19.354Z,98929
2014-08-02T03:16:51.760Z,98929
2014-08-02T03:17:10.059Z,98932
2014-08-02T03:17:28.293Z,98937
2014-08-02T03:17:46.528Z,98929
2014-08-02T03:18:33.061Z,98932
2014-08-02T03:18:51.264Z,98940
2014-08-02T03:19:09.500Z,98929
2014-08-02T03:19:27.703Z,98926
2014-08-02T03:19:45.922Z,98920
2014-08-02T03:20:04.172Z,98932
2014-08-02T03:20:22.377Z,98937
2014-08-02T03:20:40.596Z,98943
2014-08-02T03:20:58.830Z,98932
2014-08-02T03:21:17.051Z,98943
2014-08-02T03:21:35.286Z,98937
2014-08-02T03:21:53.504Z,98940
2014-08-02T03:22:11.725Z,98937
2014-08-02T03:22:29.959Z,98943
2014-08-02T03:22:48.178Z,98935
2014-08-02T03:23:06.413Z,98929
2014-08-02T03:23:24.617Z,98929
2014-08-02T03:23:42.851Z,98926
2014-08-02T03:24:01.054Z,98932
2014-08-02T03:24:19.275Z,98929
2014-08-02T03:24:51.681Z,98935
2014-08-02T03:25:09.900Z,98932
2014-08-02T03:25:28.122Z,98935
2014-08-02T03:25:46.325Z,98932
2014-08-02T03:26:04.544Z,98929
2014-08-02T03:26:22.795Z,98937
2014-08-02T03:26:40.998Z,98937
2014-08-02T03:27:14.138Z,98932
2014-08-02T03:27:32.360Z,98929
2014-08-02T03:27:50.563Z,98923
2014-08-02T03:28:08.782Z,98932
2014-08-02T03:28:27.018Z,98929
2014-08-02T03:28:45.237Z,98932
2014-08-02T03:29:03.456Z,98929
2014-08-02T03:29:21.675Z,98938
2014-08-02T03:29:39.895Z,98935
2014-08-02T03:29:58.130Z,98917
2014-08-02T03:30:16.333Z,98923
2014-08-02T03:30:34.553Z,98929
2014-08-02T03:30:52.756Z,98932
2014-08-02T03:31:10.990Z,98929
2014-08-02T03:31:29.209Z,98929
2014-08-02T03:31:47.431Z,98926
2014-08-02T03:32:05.649Z,98932
2014-08-02T03:32:23.852Z,98932
2014-08-02T03:32:42.073Z,98932
2014-08-02T03:33:00.323Z,98929
2014-08-02T03:33:18.542Z,98938
2014-08-02T03:33:36.761Z,98929
2014-08-02T03:33:54.950Z,98935
2014-08-02T03:34:13.185Z,98940
2014-08-02T03:34:31.403Z,98929
2014-08-02T03:34:49.624Z,98935
2014-08-02T03:35:07.843Z,98943
2014-08-02T03:35:26.046Z,98935
2014-08-02T03:35:44.296Z,98935
2014-08-02T03:36:02.517Z,98929
2014-08-02T03:36:20.704Z,98935
2014-08-02T03:36:38.954Z,98926
2014-08-02T03:36:57.159Z,98932
2014-08-02T03:37:15.378Z,98929
2014-08-02T03:37:33.581Z,98929
2014-08-02T03:37:51.816Z,98923
2014-08-02T03:38:10.036Z,98932
2014-08-02T03:38:28.255Z,98935
2014-08-02T03:39:01.429Z,98932
2014-08-02T03:39:19.648Z,98929
2014-08-02T03:39:37.882Z,98938
2014-08-02T03:39:56.085Z,98929
2014-08-02T03:40:14.493Z,98929
2014-08-02T03:40:32.712Z,98932
2014-08-02T03:40:50.915Z,98923
2014-08-02T03:41:09.152Z,98943
2014-08-02T03:41:27.355Z,98929
2014-08-02T03:41:45.589Z,98935
2014-08-02T03:42:03.826Z,98932
2014-08-02T03:42:22.044Z,98935
2014-08-02T03:42:40.247Z,98932
2014-08-02T03:42:58.482Z,98938
2014-08-02T03:43:16.687Z,98932
2014-08-02T03:43:34.906Z,98926
2014-08-02T03:43:53.109Z,98926
2014-08-02T03:44:11.329Z,98935
2014-08-02T03:44:29.579Z,98938
2014-08-02T03:44:47.797Z,98929
2014-08-02T03:45:06.003Z,98935
2014-08-02T03:45:24.253Z,98932
2014-08-02T03:45:42.472Z,98920
2014-08-02T03:46:00.691Z,98944
2014-08-02T03:46:18.943Z,98929
2014-08-02T03:46:37.162Z,98932
2014-08-02T03:46:55.349Z,98932
2014-08-02T03:47:13.569Z,98938
2014-08-02T03:47:31.819Z,98938
2014-08-02T03:47:50.022Z,98935
2014-08-02T03:48:08.241Z,98938
2014-08-02T03:48:26.463Z,98929
2014-08-02T03:48:44.697Z,98932
2014-08-02T03:49:02.916Z,98926
2014-08-02T03:49:21.121Z,98929
2014-08-02T03:49:39.324Z,98923
2014-08-02T03:49:57.543Z,98932
2014-08-02T03:50:15.777Z,98935
2014-08-02T03:50:33.998Z,98935
2014-08-02T03:50:52.232Z,98943
2014-08-02T03:51:10.451Z,98926
2014-08-02T03:51:28.672Z,98926
2014-08-02T03:51:46.906Z,98941
2014-08-02T03:52:05.109Z,98935
2014-08-02T03:52:55.705Z,98938
2014-08-02T03:53:13.955Z,98932
2014-08-02T03:53:32.144Z,98929
2014-08-02T03:53:50.379Z,98941
2014-08-02T03:54:08.660Z,98932
2014-08-02T03:54:26.879Z,98926
2014-08-02T03:54:45.084Z,98941
2014-08-02T03:55:03.318Z,98932
2014-08-02T03:55:21.568Z,98926
2014-08-02T03:55:39.789Z,98932
2014-08-02T03:55:58.008Z,98926
2014-08-02T03:56:16.242Z,98926
2014-08-02T03:56:34.462Z,98920
2014-08-02T03:56:52.790Z,98929
2014-08-02T03:57:11.009Z,98929
2014-08-02T03:58:01.621Z,98926
2014-08-02T03:58:19.840Z,98926
2014-08-02T03:58:38.060Z,98926
2014-08-02T03:58:56.294Z,98935
2014-08-02T03:59:14.528Z,98926
2014-08-02T03:59:32.747Z,98926
2014-08-02T03:59:50.953Z,98923
2014-08-02T04:00:09.203Z,98932
2014-08-02T04:00:27.391Z,98926
2014-08-02T04:00:45.642Z,98923
2014-08-02T04:01:03.861Z,98926
2014-08-02T04:01:22.064Z,98923
2014-08-02T04:01:40.301Z,98926
2014-08-02T04:01:58.520Z,98923
2014-08-02T04:02:16.785Z,98926
2014-08-02T04:02:35.020Z,98920
2014-08-02T04:02:53.255Z,98920
2014-08-02T04:03:11.458Z,98918
2014-08-02T04:03:29.677Z,98926
2014-08-02T04:03:47.898Z,98920
2014-08-02T04:04:06.117Z,98932
2014-08-02T04:05:10.900Z,98923
2014-08-02T04:05:29.134Z,98926
2014-08-02T04:05:47.339Z,98924
2014-08-02T04:06:05.574Z,98918
2014-08-02T04:06:23.855Z,98929
2014-08-02T04:06:42.058Z,98924
2014-08-02T04:07:14.451Z,98923
2014-08-02T04:07:32.669Z,98921
2014-08-02T04:07:50.875Z,98921
2014-08-02T04:08:09.093Z,98923